Time;durP1;ratioP1;P1;durP2;ratioP2;P2;SDS_P1;SDS_P2;PMS_P1;PMS_P2;Temp;Humidity;BMP_temperature;BMP_pressure;BME280_temperature;BME280_humidity;BME280_pressure;Samples;Min_cycle;Max_cycle;Signal;HPM_P1;HPM_P2
2023/05/17 00:00:14;;;;;;;3.03;1.07;;;;;;;9.28;73.10;98489.66;5114863;28;20303;-73
2023/05/17 00:02:40;;;;;;;1.80;0.90;;;;;;;9.20;74.45;98490.66;5114403;28;20552;-73
2023/05/17 00:05:07;;;;;;;3.77;1.30;;;;;;;9.12;75.19;98485.53;5115113;28;20231;-73
2023/05/17 00:07:34;;;;;;;4.70;1.63;;;;;;;9.15;75.34;98494.91;5114356;28;20232;-74
2023/05/17 00:10:00;;;;;;;2.63;1.07;;;;;;;9.23;75.83;98489.44;5114707;28;20203;-73
2023/05/17 00:12:26;;;;;;;2.50;1.10;;;;;;;9.02;77.93;98484.25;5114678;28;20205;-73
2023/05/17 00:14:53;;;;;;;3.20;1.00;;;;;;;9.05;74.70;98489.97;5114623;28;20200;-73
2023/05/17 00:17:19;;;;;;;2.93;1.13;;;;;;;9.04;75.47;98490.16;5114327;28;20234;-73
2023/05/17 00:19:46;;;;;;;3.53;1.17;;;;;;;9.03;75.91;98496.50;5114509;28;20209;-73
2023/05/17 00:22:12;;;;;;;3.07;1.20;;;;;;;9.05;76.19;98502.44;5114744;28;20574;-73
2023/05/17 00:24:38;;;;;;;1.63;0.97;;;;;;;9.05;75.10;98502.44;5114574;28;20223;-74
2023/05/17 00:27:05;;;;;;;2.00;1.00;;;;;;;8.98;75.47;98498.91;5114228;28;20595;-74
2023/05/17 00:29:31;;;;;;;2.37;1.10;;;;;;;9.03;76.94;98499.13;5114256;28;20211;-73
2023/05/17 00:31:58;;;;;;;2.50;0.97;;;;;;;8.92;76.80;98505.81;5114199;28;20641;-73
2023/05/17 00:34:24;;;;;;;4.53;1.33;;;;;;;8.84;77.65;98502.53;5114178;28;20210;-73
2023/05/17 00:36:50;;;;;;;2.70;1.10;;;;;;;8.95;78.59;98504.59;5114317;28;20223;-73
2023/05/17 00:39:17;;;;;;;4.10;1.30;;;;;;;8.92;76.93;98507.69;5114125;28;20239;-73
2023/05/17 00:41:43;;;;;;;2.93;1.00;;;;;;;8.85;79.62;98517.41;5114118;28;20616;-73
2023/05/17 00:44:09;;;;;;;2.53;1.00;;;;;;;8.79;79.82;98512.91;5114341;28;20210;-73
2023/05/17 00:46:36;;;;;;;5.93;1.50;;;;;;;8.74;82.33;98523.28;5114152;28;20227;-73
2023/05/17 00:49:02;;;;;;;5.40;1.40;;;;;;;8.71;80.91;98523.66;5114051;28;20213;-73
2023/05/17 00:51:30;;;;;;;6.20;1.30;;;;;;;8.71;79.97;98521.84;5113896;28;20662;-73
2023/05/17 00:53:56;;;;;;;3.30;1.60;;;;;;;8.71;81.57;98521.84;5114189;28;20276;-73
2023/05/17 00:56:24;;;;;;;2.40;1.37;;;;;;;8.59;80.91;98526.06;5114171;28;20215;-73
2023/05/17 00:58:50;;;;;;;4.03;1.40;;;;;;;8.58;82.64;98518.28;5114105;28;20256;-73
2023/05/17 01:01:17;;;;;;;4.77;1.20;;;;;;;8.61;80.00;98529.34;5114124;28;20211;-73
2023/05/17 01:03:44;;;;;;;2.67;1.03;;;;;;;8.72;79.15;98525.28;5114098;28;20210;-73
2023/05/17 01:06:11;;;;;;;3.97;1.47;;;;;;;8.71;79.02;98519.19;5113633;28;20283;-74
2023/05/17 01:08:37;;;;;;;3.53;1.10;;;;;;;8.68;79.44;98527.53;5113740;28;20217;-73
2023/05/17 01:11:29;;;;;;;3.33;1.40;;;;;;;8.68;79.08;98526.69;5114017;28;20209;-74
2023/05/17 01:14:17;;;;;;;2.77;1.20;;;;;;;8.70;79.12;98533.47;5113691;28;20629;-74
2023/05/17 01:16:56;;;;;;;2.03;1.03;;;;;;;8.62;79.56;98532.78;5113618;28;20226;-74
2023/05/17 01:19:44;;;;;;;1.93;1.00;;;;;;;8.60;80.90;98535.63;5114005;28;20574;-74
2023/05/17 01:22:44;;;;;;;1.93;1.20;;;;;;;8.61;80.62;98536.47;5113935;28;20192;-74
2023/05/17 01:25:23;;;;;;;2.37;1.50;;;;;;;8.62;82.39;98538.09;5099134;28;20282;-73
2023/05/17 01:27:51;;;;;;;5.67;1.50;;;;;;;8.48;84.04;98531.06;5097312;28;20191;-73
2023/05/17 01:30:20;;;;;;;3.57;1.20;;;;;;;8.49;85.25;98533.53;5113841;28;20289;-73
2023/05/17 01:32:47;;;;;;;3.37;1.20;;;;;;;8.47;83.86;98538.19;5115323;28;20669;-73
2023/05/17 01:35:13;;;;;;;2.13;1.20;;;;;;;8.40;86.23;98539.16;5117877;28;20252;-73
2023/05/17 01:37:40;;;;;;;4.73;1.20;;;;;;;8.39;86.84;98537.53;5117571;28;20662;-73
2023/05/17 01:40:08;;;;;;;3.90;1.20;;;;;;;8.27;86.87;98541.72;5117889;28;20203;-73
2023/05/17 01:42:38;;;;;;;4.23;1.53;;;;;;;8.14;89.83;98539.75;5117458;28;20562;-73
2023/05/17 01:45:30;;;;;;;4.40;1.20;;;;;;;8.08;89.89;98535.25;5117562;28;20227;-73
2023/05/17 01:48:03;;;;;;;3.47;1.20;;;;;;;8.15;87.71;98538.75;5117765;28;20552;-73
2023/05/17 01:50:33;;;;;;;3.23;1.27;;;;;;;8.38;85.21;98533.25;5117674;28;20187;-73
2023/05/17 01:53:05;;;;;;;1.87;1.00;;;;;;;8.33;85.38;98543.63;5117469;28;20210;-73
2023/05/17 01:55:51;;;;;;;4.43;1.30;;;;;;;8.33;83.83;98538.31;5117484;28;20219;-73
2023/05/17 01:58:20;;;;;;;4.63;1.43;;;;;;;8.23;86.62;98545.78;5117546;28;20260;-73
2023/05/17 02:00:48;;;;;;;2.30;1.20;;;;;;;8.27;84.46;98547.84;5117195;28;20607;-73
2023/05/17 02:03:18;;;;;;;4.37;1.20;;;;;;;8.42;84.61;98545.09;5117402;28;20206;-73
2023/05/17 02:05:45;;;;;;;2.17;1.17;;;;;;;8.14;87.75;98544.25;5117496;28;20258;-73
2023/05/17 02:08:12;;;;;;;3.33;1.50;;;;;;;8.12;89.53;98546.25;5117350;28;20226;-73
2023/05/17 02:10:38;;;;;;;4.57;1.37;;;;;;;8.15;88.88;98554.63;5117354;28;20692;-73
2023/05/17 02:13:05;;;;;;;3.40;1.07;;;;;;;8.01;89.57;98555.53;5117249;28;20210;-73
2023/05/17 02:15:32;;;;;;;2.57;1.43;;;;;;;8.03;90.89;98553.53;5117300;28;20227;-73
2023/05/17 02:17:59;;;;;;;3.40;1.10;;;;;;;7.96;90.74;98551.84;5117395;28;20187;-73
2023/05/17 02:20:25;;;;;;;5.10;1.33;;;;;;;8.05;89.85;98556.78;5117100;28;20203;-73
2023/05/17 02:22:51;;;;;;;4.43;1.30;;;;;;;8.15;87.96;98557.28;5116991;28;20203;-73
2023/05/17 02:25:18;;;;;;;5.43;1.20;;;;;;;8.10;89.37;98558.88;5116841;28;20227;-74
2023/05/17 02:27:44;;;;;;;2.93;1.10;;;;;;;8.13;90.48;98561.97;5116900;28;20344;-74
2023/05/17 02:30:12;;;;;;;3.50;1.50;;;;;;;8.17;87.03;98572.97;5116921;28;20203;-74
2023/05/17 02:32:39;;;;;;;2.93;1.33;;;;;;;8.19;87.84;98573.63;5116821;28;20207;-74
2023/05/17 02:35:06;;;;;;;3.33;1.23;;;;;;;8.08;88.92;98560.88;5116679;28;20229;-74
2023/05/17 02:37:32;;;;;;;2.63;1.37;;;;;;;8.05;88.16;98570.03;5116389;28;20203;-74
2023/05/17 02:39:58;;;;;;;4.10;1.47;;;;;;;8.10;88.61;98569.47;5116712;28;20583;-74
2023/05/17 02:42:25;;;;;;;3.87;1.30;;;;;;;8.00;91.82;98585.69;5116631;28;20229;-74
2023/05/17 02:44:53;;;;;;;2.93;1.00;;;;;;;7.91;93.15;98572.75;5116284;28;20211;-74
2023/05/17 02:47:19;;;;;;;4.67;1.40;;;;;;;7.90;93.24;98582.53;5116370;28;20227;-74
2023/05/17 02:49:46;;;;;;;2.07;1.10;;;;;;;7.88;92.70;98573.94;5116443;28;20203;-74
2023/05/17 02:52:13;;;;;;;2.57;1.20;;;;;;;7.89;94.21;98577.41;5116471;28;20211;-74
2023/05/17 02:54:39;;;;;;;2.33;1.40;;;;;;;7.78;90.93;98584.03;5116362;28;20211;-74
2023/05/17 02:57:06;;;;;;;3.50;1.50;;;;;;;7.75;91.16;98581.78;5116247;28;20229;-74
2023/05/17 02:59:32;;;;;;;2.33;1.30;;;;;;;7.87;90.28;98577.59;5116186;28;20206;-74
2023/05/17 03:01:58;;;;;;;2.70;1.10;;;;;;;7.81;91.85;98582.84;5116132;28;20214;-73
2023/05/17 03:04:25;;;;;;;3.27;1.53;;;;;;;7.73;91.02;98588.25;5115661;28;20298;-73
2023/05/17 03:06:51;;;;;;;4.40;1.33;;;;;;;7.78;90.81;98575.28;5115972;28;20310;-73
2023/05/17 03:09:18;;;;;;;1.30;0.97;;;;;;;7.74;90.63;98577.47;5115678;28;20203;-73
2023/05/17 03:11:44;;;;;;;2.90;1.30;;;;;;;7.67;91.68;98586.34;5116013;28;20209;-73
2023/05/17 03:14:11;;;;;;;4.17;1.37;;;;;;;7.62;90.22;98575.50;5115608;28;20214;-73
2023/05/17 03:16:37;;;;;;;3.60;0.97;;;;;;;7.64;90.28;98578.81;5115537;28;20223;-73
2023/05/17 03:19:04;;;;;;;2.80;1.40;;;;;;;7.63;89.79;98585.09;5115843;28;20704;-73
2023/05/17 03:21:30;;;;;;;3.37;1.10;;;;;;;7.66;91.04;98576.78;5115541;28;20207;-73
2023/05/17 03:23:56;;;;;;;4.43;1.37;;;;;;;7.62;89.83;98581.63;5115732;28;20203;-73
2023/05/17 03:26:23;;;;;;;2.17;1.10;;;;;;;7.61;91.53;98593.22;5115628;28;20268;-74
2023/05/17 03:28:50;;;;;;;4.43;1.37;;;;;;;7.66;89.54;98590.84;5115290;28;20780;-73
2023/05/17 03:31:17;;;;;;;2.17;1.20;;;;;;;7.71;90.54;98595.56;5115573;28;20238;-78
2023/05/17 03:33:44;;;;;;;4.33;1.33;;;;;;;7.64;90.06;98594.69;5115535;28;20243;-78
2023/05/17 03:36:10;;;;;;;2.10;1.27;;;;;;;7.67;90.10;98599.59;5114884;28;20231;-78
2023/05/17 03:38:37;;;;;;;3.33;1.23;;;;;;;7.63;90.29;98593.03;5114862;28;20199;-78
2023/05/17 03:41:03;;;;;;;4.47;1.60;;;;;;;7.68;90.33;98595.91;5114797;28;20200;-78
2023/05/17 03:43:30;;;;;;;3.20;1.20;;;;;;;7.60;90.68;98602.16;5114579;28;20605;-78
2023/05/17 03:45:56;;;;;;;3.97;1.40;;;;;;;7.66;92.14;98600.59;5114595;28;20223;-78
2023/05/17 03:48:22;;;;;;;3.30;1.33;;;;;;;7.55;94.57;98607.19;5114574;28;20199;-78
2023/05/17 03:50:49;;;;;;;3.23;1.47;;;;;;;7.44;94.07;98609.50;5114704;28;20294;-78
2023/05/17 03:53:15;;;;;;;3.13;1.60;;;;;;;7.52;95.80;98606.75;5115256;28;20210;-78
2023/05/17 03:55:42;;;;;;;3.53;1.50;;;;;;;7.37;96.63;98611.25;5114640;28;20261;-78
2023/05/17 03:58:08;;;;;;;5.30;1.33;;;;;;;7.42;96.09;98607.03;5115116;28;20203;-78
2023/05/17 04:00:34;;;;;;;2.63;1.10;;;;;;;7.48;98.42;98611.59;5115081;28;20209;-78
2023/05/17 04:03:02;;;;;;;5.10;1.37;;;;;;;7.37;97.94;98613.91;5114556;28;20238;-78
2023/05/17 04:05:28;;;;;;;3.87;1.30;;;;;;;7.33;97.71;98616.06;5114291;28;20310;-78
2023/05/17 04:07:55;;;;;;;3.97;1.57;;;;;;;7.38;98.82;98616.34;5115016;28;20565;-78
2023/05/17 04:10:21;;;;;;;4.63;1.50;;;;;;;7.20;100.00;98621.19;5114853;28;20203;-78
2023/05/17 04:12:48;;;;;;;5.87;1.63;;;;;;;7.17;99.58;98626.03;5114800;28;20206;-78
2023/05/17 04:15:15;;;;;;;3.97;1.50;;;;;;;7.16;100.00;98624.41;5114479;28;20548;-78
2023/05/17 04:17:41;;;;;;;2.77;1.20;;;;;;;7.27;100.00;98631.88;5115023;28;20200;-78
2023/05/17 04:20:08;;;;;;;3.43;1.43;;;;;;;7.27;100.00;98637.97;5114648;28;20207;-78
2023/05/17 04:22:34;;;;;;;2.73;1.70;;;;;;;7.28;99.57;98633.53;5114672;28;20203;-78
2023/05/17 04:25:01;;;;;;;3.20;1.40;;;;;;;7.25;100.00;98639.16;5114501;28;20214;-78
2023/05/17 04:27:27;;;;;;;1.77;1.40;;;;;;;7.59;96.33;98637.56;5114025;28;20223;-78
2023/05/17 04:29:53;;;;;;;2.83;1.40;;;;;;;7.39;98.24;98646.28;5114336;28;20203;-78
2023/05/17 04:32:20;;;;;;;3.57;1.77;;;;;;;7.46;97.76;98647.19;5114454;28;20211;-78
2023/05/17 04:34:46;;;;;;;1.70;1.43;;;;;;;7.43;97.07;98653.63;5114438;28;20238;-78
2023/05/17 04:37:13;;;;;;;3.40;2.00;;;;;;;7.54;98.07;98655.00;5113889;28;20225;-78
2023/05/17 04:39:40;;;;;;;7.50;1.60;;;;;;;7.64;95.53;98655.53;5114197;28;20214;-78
2023/05/17 04:42:06;;;;;;;2.37;1.23;;;;;;;7.56;99.10;98653.00;5114069;28;20203;-78
2023/05/17 04:44:32;;;;;;;3.60;1.40;;;;;;;7.59;95.80;98660.53;5113804;28;20669;-78
2023/05/17 04:46:59;;;;;;;5.10;1.50;;;;;;;7.62;96.71;98662.84;5113486;28;20709;-78
2023/05/17 04:49:25;;;;;;;3.27;1.50;;;;;;;7.68;95.29;98664.72;5113915;28;20670;-78
2023/05/17 04:51:52;;;;;;;4.70;1.57;;;;;;;7.85;95.02;98668.81;5114208;28;20238;-78
2023/05/17 04:54:18;;;;;;;3.60;1.50;;;;;;;7.74;96.54;98666.66;5114136;28;20229;-78
2023/05/17 04:56:45;;;;;;;2.53;1.03;;;;;;;7.60;95.34;98662.22;5113923;28;20219;-78
2023/05/17 04:59:11;;;;;;;3.40;1.77;;;;;;;7.67;96.11;98668.38;5113819;28;20200;-78
2023/05/17 05:01:37;;;;;;;4.53;1.50;;;;;;;7.99;94.05;98667.94;5113730;28;20199;-78
2023/05/17 05:04:05;;;;;;;4.27;1.37;;;;;;;7.81;94.94;98684.25;5113357;28;20207;-78
2023/05/17 05:06:33;;;;;;;5.13;2.37;;;;;;;7.94;94.50;98678.28;5112422;28;20219;-78
2023/05/17 05:09:03;;;;;;;4.33;1.77;;;;;;;7.85;94.50;98684.69;5113668;28;20232;-78
2023/05/17 05:11:30;;;;;;;5.43;2.00;;;;;;;8.02;95.75;98694.88;5113670;28;20211;-78
2023/05/17 05:13:56;;;;;;;5.57;2.07;;;;;;;7.84;97.44;98694.47;5113697;28;20287;-78
2023/05/17 05:16:25;;;;;;;4.93;2.00;;;;;;;7.90;95.96;98688.44;5113055;28;20231;-78
2023/05/17 05:18:51;;;;;;;3.87;1.70;;;;;;;7.75;97.57;98697.41;5113663;28;20207;-78
2023/05/17 05:21:17;;;;;;;8.13;2.07;;;;;;;7.88;97.24;98685.13;5113728;28;20203;-78
2023/05/17 05:23:44;;;;;;;3.07;2.03;;;;;;;8.04;93.94;98694.66;5113504;28;20772;-78
2023/05/17 05:26:10;;;;;;;5.13;2.07;;;;;;;8.13;97.70;98696.19;5113486;28;20231;-78
2023/05/17 05:28:36;;;;;;;4.07;1.70;;;;;;;7.84;95.25;98698.94;5113645;28;20248;-78
2023/05/17 05:31:03;;;;;;;7.03;1.90;;;;;;;8.02;95.31;98697.53;5113604;28;20207;-78
2023/05/17 05:33:30;;;;;;;6.50;3.00;;;;;;;8.22;93.52;98708.34;5113649;28;20233;-78
2023/05/17 05:35:57;;;;;;;4.03;2.03;;;;;;;8.51;91.08;98705.59;5113325;28;20224;-78
2023/05/17 05:38:23;;;;;;;8.13;2.00;;;;;;;8.40;91.14;98712.22;5113505;28;20203;-78
2023/05/17 05:40:49;;;;;;;3.67;1.50;;;;;;;8.33;93.02;98713.16;5113780;28;20207;-78
2023/05/17 05:43:16;;;;;;;7.03;1.80;;;;;;;8.52;92.32;98709.88;5113359;28;20207;-78
2023/05/17 05:45:45;;;;;;;4.50;1.60;;;;;;;8.59;90.95;98716.03;5113313;28;20233;-79
2023/05/17 05:48:13;;;;;;;4.40;1.80;;;;;;;8.20;91.85;98711.16;5114063;28;20294;-78
2023/05/17 05:50:41;;;;;;;4.77;1.77;;;;;;;8.44;93.76;98717.94;5113481;28;20222;-78
2023/05/17 05:53:08;;;;;;;5.30;1.77;;;;;;;8.44;90.46;98717.94;5113717;28;20282;-79
2023/05/17 05:55:34;;;;;;;7.43;2.10;;;;;;;8.50;90.75;98725.13;5114131;28;20225;-78
2023/05/17 05:58:01;;;;;;;6.47;1.90;;;;;;;8.48;94.25;98730.63;5113507;28;20203;-78
2023/05/17 06:00:27;;;;;;;6.37;2.17;;;;;;;8.55;91.26;98725.41;5113839;28;20211;-78
2023/05/17 06:02:54;;;;;;;5.20;2.00;;;;;;;8.76;94.18;98731.50;5113103;28;20207;-77
2023/05/17 06:05:20;;;;;;;5.00;1.97;;;;;;;8.99;90.83;98742.72;5112937;28;20318;-78
2023/05/17 06:07:47;;;;;;;4.70;1.67;;;;;;;8.54;91.04;98737.00;5113733;28;20305;-78
2023/05/17 06:10:13;;;;;;;1.87;1.60;;;;;;;8.89;92.24;98738.75;5112901;28;20670;-77
2023/05/17 06:12:39;;;;;;;6.87;1.80;;;;;;;8.78;90.67;98745.38;5113807;28;20274;-78
2023/05/17 06:15:07;;;;;;;7.57;1.80;;;;;;;8.59;91.06;98751.31;5113226;28;20213;-77
2023/05/17 06:17:33;;;;;;;4.80;2.30;;;;;;;8.67;91.93;98747.72;5100544;28;20200;-78
2023/05/17 06:19:59;;;;;;;6.60;2.20;;;;;;;9.00;92.71;98746.19;5098908;28;20214;-78
2023/05/17 06:22:26;;;;;;;4.93;2.00;;;;;;;9.23;90.76;98755.53;5098978;28;20204;-78
2023/05/17 06:24:52;;;;;;;6.67;2.20;;;;;;;9.43;89.32;98759.16;5097715;28;20208;-75
2023/05/17 06:27:19;;;;;;;3.93;2.00;;;;;;;9.66;90.34;98745.59;5093334;28;20223;-76
2023/05/17 06:29:45;;;;;;;9.30;2.13;;;;;;;9.36;86.43;98749.50;5087080;28;20563;-75
2023/05/17 06:32:11;;;;;;;3.17;1.77;;;;;;;9.19;89.89;98759.59;5086054;28;20287;-75
2023/05/17 06:34:38;;;;;;;5.07;1.73;;;;;;;9.11;88.03;98757.09;5088307;28;20208;-75
2023/05/17 06:37:05;;;;;;;5.80;2.10;;;;;;;9.25;87.16;98758.00;5086653;28;20299;-76
2023/05/17 06:39:31;;;;;;;4.03;2.30;;;;;;;9.23;87.82;98754.72;5077980;28;20664;-75
2023/05/17 06:41:58;;;;;;;4.80;2.07;;;;;;;9.06;88.76;98761.34;5076476;28;20702;-72
2023/05/17 06:44:24;;;;;;;5.37;2.17;;;;;;;9.02;89.10;98762.72;5076358;28;20243;-71
2023/05/17 06:46:50;;;;;;;6.03;2.23;;;;;;;9.41;90.59;98758.50;5076281;28;20436;-72
2023/05/17 06:49:17;;;;;;;3.50;2.20;;;;;;;9.61;88.08;98759.47;5076940;28;20200;-72
2023/05/17 06:51:43;;;;;;;6.33;2.30;;;;;;;9.42;92.93;98757.50;5076859;28;20204;-72
2023/05/17 06:54:09;;;;;;;5.13;2.10;;;;;;;9.61;90.43;98758.63;5076315;28;20217;-72
2023/05/17 06:56:36;;;;;;;4.73;1.90;;;;;;;9.44;92.46;98757.31;5076436;28;20243;-72
2023/05/17 06:59:02;;;;;;;7.60;2.23;;;;;;;9.62;88.55;98765.59;5076286;28;20218;-72
2023/05/17 07:01:29;;;;;;;7.30;2.50;;;;;;;9.63;88.08;98769.88;5076594;28;20205;-72
2023/05/17 07:03:55;;;;;;;3.43;2.27;;;;;;;9.65;91.78;98760.69;5076614;28;20288;-72
2023/05/17 07:06:21;;;;;;;9.07;2.37;;;;;;;9.94;89.70;98759.63;5076276;28;20228;-72
2023/05/17 07:08:48;;;;;;;7.03;2.20;;;;;;;9.92;90.47;98762.47;5076987;28;20534;-72
2023/05/17 07:11:14;;;;;;;4.83;2.80;;;;;;;10.08;88.08;98766.66;5076281;28;20201;-72
2023/05/17 07:13:40;;;;;;;5.67;2.40;;;;;;;10.17;87.07;98758.31;5076210;28;20236;-73
2023/05/17 07:16:08;;;;;;;4.80;2.40;;;;;;;10.57;85.71;98761.91;5076308;28;20239;-72
2023/05/17 07:18:34;;;;;;;7.97;2.63;;;;;;;10.74;83.55;98757.84;5075752;28;20568;-72
2023/05/17 07:21:01;;;;;;;4.57;2.40;;;;;;;10.65;84.99;98767.03;5076144;28;20226;-72
2023/05/17 07:23:27;;;;;;;4.40;2.70;;;;;;;10.64;83.08;98763.56;5081668;28;20198;-73
2023/05/17 07:25:53;;;;;;;7.20;2.97;;;;;;;10.89;83.41;98764.63;5094698;28;20292;-72
2023/05/17 07:28:20;;;;;;;4.33;2.13;;;;;;;10.60;85.43;98766.81;5095822;28;20227;-72
2023/05/17 07:30:46;;;;;;;4.33;2.80;;;;;;;10.89;85.39;98766.44;5095011;28;20234;-72
2023/05/17 07:33:12;;;;;;;3.80;2.43;;;;;;;10.86;85.03;98757.03;5095744;28;20208;-73
2023/05/17 07:35:39;;;;;;;7.47;2.97;;;;;;;11.03;81.83;98776.06;5096043;28;20315;-73
2023/05/17 07:38:05;;;;;;;5.97;2.60;;;;;;;11.07;85.73;98765.88;5095619;28;20694;-73
2023/05/17 07:40:37;;;;;;;5.90;2.60;;;;;;;10.97;86.57;98768.91;5096387;28;20212;-72
2023/05/17 07:43:04;;;;;;;4.53;2.43;;;;;;;10.74;82.46;98779.13;5097966;28;20260;-72
2023/05/17 07:45:30;;;;;;;5.63;2.40;;;;;;;10.55;81.89;98771.94;5098261;28;20232;-72
2023/05/17 07:47:57;;;;;;;5.77;2.87;;;;;;;9.84;83.69;98775.09;5095756;28;20220;-73
2023/05/17 07:50:23;;;;;;;4.47;2.73;;;;;;;10.24;87.16;98768.97;5095756;28;20204;-72
2023/05/17 07:52:50;;;;;;;7.83;3.17;;;;;;;10.44;89.34;98767.19;5095381;28;20215;-72
2023/05/17 07:55:17;;;;;;;4.77;2.83;;;;;;;11.05;85.24;98772.19;5095563;28;20234;-72
2023/05/17 07:57:43;;;;;;;4.60;2.80;;;;;;;11.18;84.15;98774.06;5095824;28;20226;-72
2023/05/17 08:00:11;;;;;;;5.53;2.97;;;;;;;11.15;84.10;98777.09;5095757;28;20215;-72
2023/05/17 08:02:38;;;;;;;5.63;2.90;;;;;;;11.25;82.75;98766.88;5095595;28;20208;-73
2023/05/17 08:05:04;;;;;;;7.77;3.10;;;;;;;11.44;82.08;98775.88;5095773;28;20208;-73
2023/05/17 08:07:31;;;;;;;6.73;2.93;;;;;;;11.22;78.76;98774.44;5094866;28;20224;-72
2023/05/17 08:09:57;;;;;;;8.13;2.83;;;;;;;11.07;80.34;98777.31;5094937;28;20210;-72
2023/05/17 08:12:23;;;;;;;4.47;2.50;;;;;;;11.37;80.16;98775.03;5094977;28;20208;-72
2023/05/17 08:14:50;;;;;;;5.43;3.17;;;;;;;11.12;79.06;98772.19;5094952;28;20200;-72
2023/05/17 08:17:17;;;;;;;6.80;3.23;;;;;;;11.22;79.24;98772.63;5095763;28;20729;-72
2023/05/17 08:19:43;;;;;;;6.97;3.07;;;;;;;11.42;81.98;98764.59;5095548;28;20204;-73
2023/05/17 08:22:10;;;;;;;3.90;2.70;;;;;;;11.79;78.60;98770.09;5094791;28;20616;-73
2023/05/17 08:24:36;;;;;;;4.93;3.17;;;;;;;11.29;77.45;98773.41;5094637;28;20572;-73
2023/05/17 08:27:03;;;;;;;5.33;3.30;;;;;;;11.51;78.39;98771.34;5094939;28;20254;-73
2023/05/17 08:29:29;;;;;;;5.63;2.70;;;;;;;11.87;78.97;98766.38;5094935;28;20199;-73
2023/05/17 08:31:55;;;;;;;5.80;3.00;;;;;;;11.89;74.78;98769.66;5094594;28;20211;-72
2023/05/17 08:34:22;;;;;;;6.07;3.00;;;;;;;11.80;77.34;98763.72;5094933;28;20215;-72
2023/05/17 08:36:49;;;;;;;5.50;3.27;;;;;;;11.84;79.16;98772.94;5094457;28;20570;-72
2023/05/17 08:39:15;;;;;;;5.57;3.20;;;;;;;11.44;76.37;98781.19;5095059;28;20263;-73
2023/05/17 08:41:41;;;;;;;7.23;3.53;;;;;;;11.57;79.45;98774.00;5094350;28;20212;-73
2023/05/17 08:44:09;;;;;;;6.07;3.13;;;;;;;11.09;77.39;98780.59;5095767;28;20503;-73
2023/05/17 08:46:37;;;;;;;4.90;2.90;;;;;;;11.56;76.91;98771.53;5076554;28;20732;-73
2023/05/17 08:49:05;;;;;;;8.20;3.30;;;;;;;11.99;78.20;98770.03;5094971;28;20200;-73
2023/05/17 08:51:32;;;;;;;5.07;2.90;;;;;;;12.54;76.75;98778.19;5077002;28;20207;-73
2023/05/17 08:53:59;;;;;;;4.00;2.60;;;;;;;12.42;73.36;98771.06;5094681;28;20218;-73
2023/05/17 08:56:27;;;;;;;5.90;2.83;;;;;;;11.37;78.00;98767.88;5094480;28;20757;-71
2023/05/17 08:58:56;;;;;;;3.63;2.63;;;;;;;11.65;76.56;98763.16;5094724;28;20240;-72
2023/05/17 09:01:23;;;;;;;4.40;2.87;;;;;;;11.86;77.28;98764.75;5094543;28;20744;-72
2023/05/17 09:03:50;;;;;;;5.13;2.97;;;;;;;12.21;75.82;98774.84;5094402;28;20257;-72
2023/05/17 09:06:23;;;;;;;9.23;3.30;;;;;;;12.54;77.02;98772.03;5094240;28;20223;-72
2023/05/17 09:08:51;;;;;;;4.90;2.80;;;;;;;12.61;71.45;98773.63;5091536;28;20219;-72
2023/05/17 09:11:31;;;;;;;4.70;2.80;;;;;;;12.56;73.67;98777.97;5073774;28;20197;-72
2023/05/17 09:14:06;;;;;;;6.33;2.93;;;;;;;12.76;72.26;98782.16;5073987;28;20190;-72
2023/05/17 09:16:35;;;;;;;6.23;3.20;;;;;;;12.58;72.65;98782.06;5073898;28;20711;-72
2023/05/17 09:19:02;;;;;;;6.03;2.93;;;;;;;12.60;72.31;98782.66;5073942;28;20572;-72
2023/05/17 09:21:30;;;;;;;4.43;2.50;;;;;;;12.32;72.72;98776.88;5074245;28;20733;-72
2023/05/17 09:24:00;;;;;;;5.53;2.87;;;;;;;12.41;68.73;98785.44;5074090;28;20209;-72
2023/05/17 09:26:37;;;;;;;3.87;2.70;;;;;;;12.56;68.89;98777.97;5073841;28;20230;-72
2023/05/17 09:29:08;;;;;;;6.60;3.10;;;;;;;12.13;70.95;98787.59;5074101;28;20628;-72
2023/05/17 09:31:35;;;;;;;6.27;2.80;;;;;;;12.44;72.29;98787.69;5073854;28;20240;-72
2023/05/17 09:34:02;;;;;;;6.07;2.87;;;;;;;12.75;65.81;98785.84;5074108;28;20211;-72
2023/05/17 09:36:28;;;;;;;5.13;3.03;;;;;;;12.96;68.03;98787.34;5073790;28;20220;-72
2023/05/17 09:39:04;;;;;;;5.70;2.67;;;;;;;12.75;64.87;98785.84;5074081;28;20201;-74
2023/05/17 09:41:40;;;;;;;6.10;2.83;;;;;;;13.13;66.55;98778.66;5074380;28;20195;-74
2023/05/17 09:44:11;;;;;;;5.63;2.80;;;;;;;12.60;69.23;98780.00;5073763;28;20240;-74
2023/05/17 09:46:42;;;;;;;4.97;3.20;;;;;;;13.30;70.86;98785.06;5073156;28;20707;-73
2023/05/17 09:49:08;;;;;;;5.50;2.80;;;;;;;13.67;64.16;98785.97;5073702;28;20312;-73
2023/05/17 09:51:43;;;;;;;4.87;3.20;;;;;;;14.09;65.62;98777.06;5074012;28;20546;-73
2023/05/17 09:54:10;;;;;;;5.70;3.03;;;;;;;14.65;62.53;98777.63;5077064;28;20207;-76
2023/05/17 09:56:37;;;;;;;4.20;3.00;;;;;;;14.49;59.88;98779.06;5075443;28;20232;-77
2023/05/17 09:59:10;;;;;;;3.97;2.67;;;;;;;13.79;57.24;98781.53;5075449;28;20196;-76
2023/05/17 10:01:44;;;;;;;4.17;2.80;;;;;;;13.75;59.93;98781.13;5075601;28;20193;-76
2023/05/17 10:04:12;;;;;;;7.00;3.13;;;;;;;13.50;62.10;98787.56;5075115;28;20197;-76
2023/05/17 10:06:40;;;;;;;4.83;3.20;;;;;;;13.66;61.39;98782.47;5075681;28;20239;-75
2023/05/17 10:09:12;;;;;;;3.83;2.93;;;;;;;13.79;58.44;98778.88;5075221;28;20315;-75
2023/05/17 10:11:41;;;;;;;4.77;3.00;;;;;;;13.79;62.57;98774.31;5076479;28;20318;-76
2023/05/17 10:14:12;;;;;;;5.23;2.90;;;;;;;13.49;60.87;98764.56;5077073;28;20204;-76
2023/05/17 10:16:39;;;;;;;4.10;2.70;;;;;;;13.56;63.78;98771.47;5077100;28;20602;-76
2023/05/17 10:19:06;;;;;;;6.47;3.00;;;;;;;13.49;63.32;98785.94;5076684;28;20201;-73
2023/05/17 10:21:35;;;;;;;3.93;2.80;;;;;;;13.30;63.02;98787.72;5076834;28;20216;-73
2023/05/17 10:24:02;;;;;;;4.57;2.93;;;;;;;13.22;66.20;98782.69;5076938;28;20200;-74
2023/05/17 10:26:29;;;;;;;5.53;3.10;;;;;;;12.90;62.70;98790.91;5076618;28;20224;-73
2023/05/17 10:29:01;;;;;;;5.90;2.93;;;;;;;12.87;63.50;98791.31;5076510;28;20221;-73
2023/05/17 10:31:30;;;;;;;5.63;3.00;;;;;;;12.88;64.32;98787.63;5076413;28;20212;-73
2023/05/17 10:33:58;;;;;;;5.07;3.00;;;;;;;13.10;67.30;98786.25;5076674;28;20563;-73
2023/05/17 10:36:25;;;;;;;7.63;3.03;;;;;;;13.21;64.90;98781.03;5076238;28;20231;-73
2023/05/17 10:38:52;;;;;;;5.77;3.10;;;;;;;12.78;63.67;98785.44;5076633;28;20226;-74
2023/05/17 10:41:22;;;;;;;8.07;3.00;;;;;;;13.03;64.04;98790.84;5076399;28;20208;-75
2023/05/17 10:43:50;;;;;;;7.47;3.37;;;;;;;12.72;63.18;98780.13;5076219;28;20653;-74
2023/05/17 10:46:20;;;;;;;5.03;2.90;;;;;;;13.13;63.03;98784.00;5076497;28;20226;-74
2023/05/17 10:48:50;;;;;;;4.97;2.60;;;;;;;13.44;62.40;98786.59;5076434;28;20315;-74
2023/05/17 10:51:23;;;;;;;5.10;3.43;;;;;;;13.66;60.62;98785.13;5076085;28;20667;-73
2023/05/17 10:54:09;;;;;;;8.67;3.23;;;;;;;13.67;62.60;98781.44;5076951;28;20195;-74
2023/05/17 10:56:41;;;;;;;5.27;2.97;;;;;;;13.46;63.20;98781.00;5076231;28;20260;-74
2023/05/17 10:59:22;;;;;;;5.73;3.40;;;;;;;13.45;62.69;98790.91;5076198;28;20192;-74
2023/05/17 11:02:08;;;;;;;5.37;2.77;;;;;;;13.27;59.67;98782.84;5075814;28;20298;-74
2023/05/17 11:04:35;;;;;;;4.90;2.87;;;;;;;12.55;62.61;98790.50;5076252;28;20202;-74
2023/05/17 11:07:17;;;;;;;4.87;3.00;;;;;;;13.06;63.72;98793.88;5076098;28;20233;-74
2023/05/17 11:09:45;;;;;;;4.47;2.80;;;;;;;13.48;63.97;98790.44;5076596;28;20683;-74
2023/05/17 11:12:13;;;;;;;4.77;2.70;;;;;;;13.54;64.37;98791.44;5075713;28;20209;-74
2023/05/17 11:14:45;;;;;;;6.50;3.20;;;;;;;13.98;61.37;98791.19;5082129;28;20211;-73
2023/05/17 11:17:20;;;;;;;4.83;3.03;;;;;;;13.55;63.46;98785.88;5084972;28;20227;-74
2023/05/17 11:19:55;;;;;;;4.70;3.10;;;;;;;13.08;65.98;98793.66;5085436;28;20306;-74
2023/05/17 11:22:33;;;;;;;5.50;2.83;;;;;;;13.32;63.19;98796.34;5085162;28;20286;-74
2023/05/17 11:25:05;;;;;;;4.30;2.93;;;;;;;13.19;64.89;98793.78;5084735;28;20681;-74
2023/05/17 11:27:43;;;;;;;5.80;3.30;;;;;;;13.32;64.84;98787.50;5084449;28;20207;-74
2023/05/17 11:30:25;;;;;;;4.33;2.50;;;;;;;13.03;64.33;98785.50;5085855;28;20191;-74
2023/05/17 11:32:58;;;;;;;6.03;3.13;;;;;;;12.95;64.23;98785.72;5086072;28;20282;-74
2023/05/17 11:35:27;;;;;;;6.00;3.00;;;;;;;12.93;64.65;98788.59;5085231;28;20244;-74
2023/05/17 11:38:12;;;;;;;4.17;2.97;;;;;;;12.78;65.64;98787.25;5084590;28;20194;-74
2023/05/17 11:40:38;;;;;;;4.00;3.00;;;;;;;13.01;65.60;98783.03;5086352;28;20195;-74
2023/05/17 11:43:19;;;;;;;6.63;3.23;;;;;;;12.77;65.89;98783.81;5084854;28;20208;-74